sensor_id;sensor_type;location;lat;lon;timestamp;temperature;humidity
57660;DHT22;43485;45.680;15.702;2023-12-07T00:01:10;3.50;76.90
57660;DHT22;43485;45.680;15.702;2023-12-07T00:03:36;3.40;76.50
57660;DHT22;43485;45.680;15.702;2023-12-07T00:06:02;3.40;77.20
57660;DHT22;43485;45.680;15.702;2023-12-07T00:08:30;3.50;76.70
57660;DHT22;43485;45.680;15.702;2023-12-07T00:10:56;3.50;77.20
57660;DHT22;43485;45.680;15.702;2023-12-07T00:13:22;3.50;77.20
57660;DHT22;43485;45.680;15.702;2023-12-07T00:15:48;3.40;77.00
57660;DHT22;43485;45.680;15.702;2023-12-07T00:18:14;3.50;77.10
57660;DHT22;43485;45.680;15.702;2023-12-07T00:20:40;3.50;77.20
57660;DHT22;43485;45.680;15.702;2023-12-07T00:23:06;3.40;77.10
57660;DHT22;43485;45.680;15.702;2023-12-07T00:25:32;3.40;77.10
57660;DHT22;43485;45.680;15.702;2023-12-07T00:27:59;3.40;77.20
57660;DHT22;43485;45.680;15.702;2023-12-07T00:30:25;3.40;77.10
57660;DHT22;43485;45.680;15.702;2023-12-07T00:32:51;3.40;77.10
57660;DHT22;43485;45.680;15.702;2023-12-07T00:35:17;3.40;77.00
57660;DHT22;43485;45.680;15.702;2023-12-07T00:37:47;3.40;77.00
57660;DHT22;43485;45.680;15.702;2023-12-07T00:40:14;3.40;76.50
57660;DHT22;43485;45.680;15.702;2023-12-07T00:42:40;3.40;77.10
57660;DHT22;43485;45.680;15.702;2023-12-07T00:45:06;3.40;77.00
57660;DHT22;43485;45.680;15.702;2023-12-07T00:47:32;3.40;76.30
57660;DHT22;43485;45.680;15.702;2023-12-07T00:49:58;3.40;76.90
57660;DHT22;43485;45.680;15.702;2023-12-07T00:52:24;3.40;76.90
57660;DHT22;43485;45.680;15.702;2023-12-07T00:54:50;3.40;76.70
57660;DHT22;43485;45.680;15.702;2023-12-07T00:57:16;3.50;76.90
57660;DHT22;43485;45.680;15.702;2023-12-07T00:59:42;3.50;76.90
57660;DHT22;43485;45.680;15.702;2023-12-07T01:02:08;3.40;76.90
57660;DHT22;43485;45.680;15.702;2023-12-07T01:04:35;3.40;77.00
57660;DHT22;43485;45.680;15.702;2023-12-07T01:07:01;3.40;77.10
57660;DHT22;43485;45.680;15.702;2023-12-07T01:09:27;3.40;77.20
57660;DHT22;43485;45.680;15.702;2023-12-07T01:11:53;3.40;77.20
57660;DHT22;43485;45.680;15.702;2023-12-07T01:14:19;3.40;77.20
57660;DHT22;43485;45.680;15.702;2023-12-07T01:16:45;3.40;77.40
57660;DHT22;43485;45.680;15.702;2023-12-07T01:19:11;3.40;77.40
57660;DHT22;43485;45.680;15.702;2023-12-07T01:21:41;3.40;77.50
57660;DHT22;43485;45.680;15.702;2023-12-07T01:24:08;3.30;77.30
57660;DHT22;43485;45.680;15.702;2023-12-07T01:26:34;3.30;77.50
57660;DHT22;43485;45.680;15.702;2023-12-07T01:29:01;3.40;77.10
57660;DHT22;43485;45.680;15.702;2023-12-07T01:31:28;3.40;77.20
57660;DHT22;43485;45.680;15.702;2023-12-07T01:33:55;3.40;77.70
57660;DHT22;43485;45.680;15.702;2023-12-07T01:36:21;3.40;77.80
57660;DHT22;43485;45.680;15.702;2023-12-07T01:38:48;3.40;78.00
57660;DHT22;43485;45.680;15.702;2023-12-07T01:41:14;3.40;77.90
57660;DHT22;43485;45.680;15.702;2023-12-07T01:43:59;3.40;77.80
57660;DHT22;43485;45.680;15.702;2023-12-07T01:46:25;3.40;78.00
57660;DHT22;43485;45.680;15.702;2023-12-07T01:48:51;3.40;77.90
57660;DHT22;43485;45.680;15.702;2023-12-07T01:51:19;3.50;78.10
57660;DHT22;43485;45.680;15.702;2023-12-07T01:53:47;3.40;77.90
57660;DHT22;43485;45.680;15.702;2023-12-07T01:56:14;3.50;78.00
57660;DHT22;43485;45.680;15.702;2023-12-07T01:58:41;3.50;78.00
57660;DHT22;43485;45.680;15.702;2023-12-07T02:01:08;3.50;78.10
57660;DHT22;43485;45.680;15.702;2023-12-07T02:03:39;3.50;78.10
57660;DHT22;43485;45.680;15.702;2023-12-07T02:06:06;3.50;78.20
57660;DHT22;43485;45.680;15.702;2023-12-07T02:08:34;3.50;78.20
57660;DHT22;43485;45.680;15.702;2023-12-07T02:11:01;3.50;78.30
57660;DHT22;43485;45.680;15.702;2023-12-07T02:13:27;3.60;78.40
57660;DHT22;43485;45.680;15.702;2023-12-07T02:15:56;3.50;78.40
57660;DHT22;43485;45.680;15.702;2023-12-07T02:21:52;3.60;78.60
57660;DHT22;43485;45.680;15.702;2023-12-07T02:24:26;3.60;78.50
57660;DHT22;43485;45.680;15.702;2023-12-07T02:26:54;3.50;78.50
57660;DHT22;43485;45.680;15.702;2023-12-07T02:29:20;3.50;78.70
57660;DHT22;43485;45.680;15.702;2023-12-07T02:31:46;3.60;78.70
57660;DHT22;43485;45.680;15.702;2023-12-07T02:34:12;3.60;78.80
57660;DHT22;43485;45.680;15.702;2023-12-07T02:36:39;3.60;78.80
57660;DHT22;43485;45.680;15.702;2023-12-07T02:39:07;3.50;78.80
57660;DHT22;43485;45.680;15.702;2023-12-07T02:41:35;3.50;79.10
57660;DHT22;43485;45.680;15.702;2023-12-07T02:44:02;3.50;79.10
57660;DHT22;43485;45.680;15.702;2023-12-07T02:46:29;3.50;79.30
57660;DHT22;43485;45.680;15.702;2023-12-07T02:48:57;3.50;79.40
57660;DHT22;43485;45.680;15.702;2023-12-07T02:51:24;3.60;78.80
57660;DHT22;43485;45.680;15.702;2023-12-07T02:53:50;3.50;79.50
57660;DHT22;43485;45.680;15.702;2023-12-07T02:56:16;3.60;79.50
57660;DHT22;43485;45.680;15.702;2023-12-07T02:58:42;3.50;79.50
57660;DHT22;43485;45.680;15.702;2023-12-07T03:01:08;3.50;79.70
57660;DHT22;43485;45.680;15.702;2023-12-07T03:03:35;3.50;79.70
57660;DHT22;43485;45.680;15.702;2023-12-07T03:06:04;3.40;79.60
57660;DHT22;43485;45.680;15.702;2023-12-07T03:08:30;3.40;79.20
57660;DHT22;43485;45.680;15.702;2023-12-07T03:10:56;3.50;80.10
57660;DHT22;43485;45.680;15.702;2023-12-07T03:13:22;3.40;80.10
57660;DHT22;43485;45.680;15.702;2023-12-07T03:15:48;3.40;80.20
57660;DHT22;43485;45.680;15.702;2023-12-07T03:18:14;3.40;80.20
57660;DHT22;43485;45.680;15.702;2023-12-07T03:20:40;3.40;80.20
57660;DHT22;43485;45.680;15.702;2023-12-07T03:23:07;3.40;80.20
57660;DHT22;43485;45.680;15.702;2023-12-07T03:25:33;3.40;80.20
57660;DHT22;43485;45.680;15.702;2023-12-07T03:27:59;3.40;80.30
57660;DHT22;43485;45.680;15.702;2023-12-07T03:30:25;3.30;80.40
57660;DHT22;43485;45.680;15.702;2023-12-07T03:32:51;3.30;80.30
57660;DHT22;43485;45.680;15.702;2023-12-07T03:35:17;3.30;80.40
57660;DHT22;43485;45.680;15.702;2023-12-07T03:37:43;3.30;80.30
57660;DHT22;43485;45.680;15.702;2023-12-07T03:40:09;3.20;80.30
57660;DHT22;43485;45.680;15.702;2023-12-07T03:42:36;3.20;80.20
57660;DHT22;43485;45.680;15.702;2023-12-07T03:45:02;3.20;80.30
57660;DHT22;43485;45.680;15.702;2023-12-07T03:47:28;3.20;79.70
57660;DHT22;43485;45.680;15.702;2023-12-07T03:49:54;3.20;80.30
57660;DHT22;43485;45.680;15.702;2023-12-07T03:52:20;3.20;80.30
57660;DHT22;43485;45.680;15.702;2023-12-07T03:54:46;3.10;80.30
57660;DHT22;43485;45.680;15.702;2023-12-07T03:57:12;3.10;80.30
57660;DHT22;43485;45.680;15.702;2023-12-07T03:59:38;3.10;80.40
57660;DHT22;43485;45.680;15.702;2023-12-07T04:02:04;3.00;80.40
57660;DHT22;43485;45.680;15.702;2023-12-07T04:04:31;3.00;80.40
57660;DHT22;43485;45.680;15.702;2023-12-07T04:06:57;3.00;80.30
57660;DHT22;43485;45.680;15.702;2023-12-07T04:09:23;3.00;80.20
57660;DHT22;43485;45.680;15.702;2023-12-07T04:11:49;3.00;80.10
57660;DHT22;43485;45.680;15.702;2023-12-07T04:14:15;3.00;80.20
57660;DHT22;43485;45.680;15.702;2023-12-07T04:16:41;2.90;80.20
57660;DHT22;43485;45.680;15.702;2023-12-07T04:19:07;3.00;80.00
57660;DHT22;43485;45.680;15.702;2023-12-07T04:21:33;3.00;79.90
57660;DHT22;43485;45.680;15.702;2023-12-07T04:23:59;3.00;79.80
57660;DHT22;43485;45.680;15.702;2023-12-07T04:26:25;3.00;79.70
57660;DHT22;43485;45.680;15.702;2023-12-07T04:28:51;3.00;79.70
57660;DHT22;43485;45.680;15.702;2023-12-07T04:31:17;2.90;79.70
57660;DHT22;43485;45.680;15.702;2023-12-07T04:33:43;2.90;79.60
57660;DHT22;43485;45.680;15.702;2023-12-07T04:36:09;2.90;79.70
57660;DHT22;43485;45.680;15.702;2023-12-07T04:38:35;2.90;79.10
57660;DHT22;43485;45.680;15.702;2023-12-07T04:41:01;2.90;79.60
57660;DHT22;43485;45.680;15.702;2023-12-07T04:43:27;2.90;79.50
57660;DHT22;43485;45.680;15.702;2023-12-07T04:45:54;2.90;79.60
57660;DHT22;43485;45.680;15.702;2023-12-07T04:48:20;2.90;79.50
57660;DHT22;43485;45.680;15.702;2023-12-07T04:50:46;2.90;79.60
57660;DHT22;43485;45.680;15.702;2023-12-07T04:53:12;2.80;79.50
57660;DHT22;43485;45.680;15.702;2023-12-07T04:55:38;2.80;79.60
57660;DHT22;43485;45.680;15.702;2023-12-07T04:58:04;2.80;79.70
57660;DHT22;43485;45.680;15.702;2023-12-07T05:00:30;2.80;79.70
57660;DHT22;43485;45.680;15.702;2023-12-07T05:02:56;2.70;79.80
57660;DHT22;43485;45.680;15.702;2023-12-07T05:05:22;2.70;79.90
57660;DHT22;43485;45.680;15.702;2023-12-07T05:07:49;2.60;79.80
57660;DHT22;43485;45.680;15.702;2023-12-07T05:10:16;2.60;80.00
57660;DHT22;43485;45.680;15.702;2023-12-07T05:12:42;2.70;80.10
57660;DHT22;43485;45.680;15.702;2023-12-07T05:15:08;2.50;80.10
57660;DHT22;43485;45.680;15.702;2023-12-07T05:17:34;2.50;79.60
57660;DHT22;43485;45.680;15.702;2023-12-07T05:20:00;2.40;80.30
57660;DHT22;43485;45.680;15.702;2023-12-07T05:22:28;2.40;80.40
57660;DHT22;43485;45.680;15.702;2023-12-07T05:24:54;2.30;80.40
57660;DHT22;43485;45.680;15.702;2023-12-07T05:27:20;2.30;80.40
57660;DHT22;43485;45.680;15.702;2023-12-07T05:29:46;2.30;80.40
57660;DHT22;43485;45.680;15.702;2023-12-07T05:32:12;2.30;80.40
57660;DHT22;43485;45.680;15.702;2023-12-07T05:34:38;2.30;80.20
57660;DHT22;43485;45.680;15.702;2023-12-07T05:37:04;2.20;80.10
57660;DHT22;43485;45.680;15.702;2023-12-07T05:39:30;2.20;80.20
57660;DHT22;43485;45.680;15.702;2023-12-07T05:41:57;2.20;80.20
57660;DHT22;43485;45.680;15.702;2023-12-07T05:44:23;2.20;80.30
57660;DHT22;43485;45.680;15.702;2023-12-07T05:46:49;2.20;80.30
57660;DHT22;43485;45.680;15.702;2023-12-07T05:49:16;2.20;80.30
57660;DHT22;43485;45.680;15.702;2023-12-07T05:51:42;2.20;80.20
57660;DHT22;43485;45.680;15.702;2023-12-07T05:54:08;2.20;80.20
57660;DHT22;43485;45.680;15.702;2023-12-07T05:56:34;2.10;80.20
57660;DHT22;43485;45.680;15.702;2023-12-07T05:59:00;2.10;80.20
57660;DHT22;43485;45.680;15.702;2023-12-07T06:01:26;2.10;80.30
57660;DHT22;43485;45.680;15.702;2023-12-07T06:03:52;2.00;80.10
57660;DHT22;43485;45.680;15.702;2023-12-07T06:06:18;2.00;80.10
57660;DHT22;43485;45.680;15.702;2023-12-07T06:08:46;2.00;80.10
57660;DHT22;43485;45.680;15.702;2023-12-07T06:11:13;1.90;80.20
57660;DHT22;43485;45.680;15.702;2023-12-07T06:13:39;1.90;80.40
57660;DHT22;43485;45.680;15.702;2023-12-07T06:16:05;1.90;80.60
57660;DHT22;43485;45.680;15.702;2023-12-07T06:18:31;1.90;81.50
57660;DHT22;43485;45.680;15.702;2023-12-07T06:20:57;1.80;80.40
57660;DHT22;43485;45.680;15.702;2023-12-07T06:23:23;1.80;80.70
57660;DHT22;43485;45.680;15.702;2023-12-07T06:25:49;1.90;80.80
57660;DHT22;43485;45.680;15.702;2023-12-07T06:28:15;1.80;80.70
57660;DHT22;43485;45.680;15.702;2023-12-07T06:30:41;1.90;80.80
57660;DHT22;43485;45.680;15.702;2023-12-07T06:33:07;1.90;80.70
57660;DHT22;43485;45.680;15.702;2023-12-07T06:35:34;1.80;81.50
57660;DHT22;43485;45.680;15.702;2023-12-07T06:38:00;1.90;80.70
57660;DHT22;43485;45.680;15.702;2023-12-07T06:40:27;1.90;80.50
57660;DHT22;43485;45.680;15.702;2023-12-07T06:42:53;1.90;80.10
57660;DHT22;43485;45.680;15.702;2023-12-07T06:45:19;1.90;80.00
57660;DHT22;43485;45.680;15.702;2023-12-07T06:47:45;1.90;79.90
57660;DHT22;43485;45.680;15.702;2023-12-07T06:50:11;2.00;80.00
57660;DHT22;43485;45.680;15.702;2023-12-07T06:52:39;2.00;79.90
57660;DHT22;43485;45.680;15.702;2023-12-07T06:55:06;2.00;79.70
57660;DHT22;43485;45.680;15.702;2023-12-07T06:57:32;2.10;79.40
57660;DHT22;43485;45.680;15.702;2023-12-07T07:00:17;2.10;79.80
57660;DHT22;43485;45.680;15.702;2023-12-07T07:02:45;2.20;79.00
57660;DHT22;43485;45.680;15.702;2023-12-07T07:05:11;2.20;79.60
57660;DHT22;43485;45.680;15.702;2023-12-07T07:07:38;2.30;79.80
57660;DHT22;43485;45.680;15.702;2023-12-07T07:10:04;2.30;79.70
57660;DHT22;43485;45.680;15.702;2023-12-07T07:12:31;2.30;79.70
57660;DHT22;43485;45.680;15.702;2023-12-07T07:14:57;2.30;79.90
57660;DHT22;43485;45.680;15.702;2023-12-07T07:17:23;2.30;79.80
57660;DHT22;43485;45.680;15.702;2023-12-07T07:19:49;2.30;79.80
57660;DHT22;43485;45.680;15.702;2023-12-07T07:22:15;2.40;79.90
57660;DHT22;43485;45.680;15.702;2023-12-07T07:24:41;2.40;79.70
57660;DHT22;43485;45.680;15.702;2023-12-07T07:27:07;2.40;79.60
57660;DHT22;43485;45.680;15.702;2023-12-07T07:29:33;2.30;80.00
57660;DHT22;43485;45.680;15.702;2023-12-07T07:31:59;2.30;79.80
57660;DHT22;43485;45.680;15.702;2023-12-07T07:34:25;2.20;79.80
57660;DHT22;43485;45.680;15.702;2023-12-07T07:36:51;2.20;79.70
57660;DHT22;43485;45.680;15.702;2023-12-07T07:39:18;2.20;80.00
57660;DHT22;43485;45.680;15.702;2023-12-07T07:41:44;2.30;79.80
57660;DHT22;43485;45.680;15.702;2023-12-07T07:44:10;2.40;79.50
57660;DHT22;43485;45.680;15.702;2023-12-07T07:46:36;2.50;79.50
57660;DHT22;43485;45.680;15.702;2023-12-07T07:49:02;2.50;79.40
57660;DHT22;43485;45.680;15.702;2023-12-07T07:51:29;2.60;79.20
57660;DHT22;43485;45.680;15.702;2023-12-07T07:53:58;2.70;78.90
57660;DHT22;43485;45.680;15.702;2023-12-07T07:56:24;2.80;78.30
57660;DHT22;43485;45.680;15.702;2023-12-07T07:58:50;2.80;78.30
57660;DHT22;43485;45.680;15.702;2023-12-07T08:01:16;2.80;78.20
57660;DHT22;43485;45.680;15.702;2023-12-07T08:03:42;2.90;78.20
57660;DHT22;43485;45.680;15.702;2023-12-07T08:06:08;3.00;77.90
57660;DHT22;43485;45.680;15.702;2023-12-07T08:08:34;3.10;77.40
57660;DHT22;43485;45.680;15.702;2023-12-07T08:11:00;3.20;76.90
57660;DHT22;43485;45.680;15.702;2023-12-07T08:13:27;3.20;76.80
57660;DHT22;43485;45.680;15.702;2023-12-07T08:15:53;3.20;76.00
57660;DHT22;43485;45.680;15.702;2023-12-07T08:18:19;3.20;76.20
57660;DHT22;43485;45.680;15.702;2023-12-07T08:20:46;3.30;76.40
57660;DHT22;43485;45.680;15.702;2023-12-07T08:23:12;3.40;76.20
57660;DHT22;43485;45.680;15.702;2023-12-07T08:25:38;3.60;76.00
57660;DHT22;43485;45.680;15.702;2023-12-07T08:28:05;3.70;75.40
57660;DHT22;43485;45.680;15.702;2023-12-07T08:30:31;3.80;74.90
57660;DHT22;43485;45.680;15.702;2023-12-07T08:32:57;3.90;74.90
57660;DHT22;43485;45.680;15.702;2023-12-07T08:35:24;4.00;74.10
57660;DHT22;43485;45.680;15.702;2023-12-07T08:37:50;4.00;74.00
57660;DHT22;43485;45.680;15.702;2023-12-07T08:40:16;4.10;74.20
57660;DHT22;43485;45.680;15.702;2023-12-07T08:43:01;4.20;74.10
57660;DHT22;43485;45.680;15.702;2023-12-07T08:45:28;4.30;73.20
57660;DHT22;43485;45.680;15.702;2023-12-07T08:47:54;4.50;72.90
57660;DHT22;43485;45.680;15.702;2023-12-07T08:50:20;4.50;72.80
57660;DHT22;43485;45.680;15.702;2023-12-07T08:52:46;4.50;72.70
57660;DHT22;43485;45.680;15.702;2023-12-07T08:55:12;4.70;72.60
57660;DHT22;43485;45.680;15.702;2023-12-07T08:57:40;4.90;71.90
57660;DHT22;43485;45.680;15.702;2023-12-07T09:00:07;5.00;71.00
57660;DHT22;43485;45.680;15.702;2023-12-07T09:02:33;5.20;70.50
57660;DHT22;43485;45.680;15.702;2023-12-07T09:04:59;5.30;70.20
57660;DHT22;43485;45.680;15.702;2023-12-07T09:07:25;5.30;69.60
57660;DHT22;43485;45.680;15.702;2023-12-07T09:09:51;5.40;70.00
57660;DHT22;43485;45.680;15.702;2023-12-07T09:12:17;5.50;70.10
57660;DHT22;43485;45.680;15.702;2023-12-07T09:14:43;5.70;69.20
57660;DHT22;43485;45.680;15.702;2023-12-07T09:17:09;5.80;69.30
57660;DHT22;43485;45.680;15.702;2023-12-07T09:19:35;5.90;69.00
57660;DHT22;43485;45.680;15.702;2023-12-07T09:22:01;6.20;68.40
57660;DHT22;43485;45.680;15.702;2023-12-07T09:24:27;6.30;67.90
57660;DHT22;43485;45.680;15.702;2023-12-07T09:26:53;6.40;67.70
57660;DHT22;43485;45.680;15.702;2023-12-07T09:29:19;6.50;67.50
57660;DHT22;43485;45.680;15.702;2023-12-07T09:31:45;6.60;67.10
57660;DHT22;43485;45.680;15.702;2023-12-07T09:34:11;6.80;67.00
57660;DHT22;43485;45.680;15.702;2023-12-07T09:36:43;7.00;66.70
57660;DHT22;43485;45.680;15.702;2023-12-07T09:39:10;7.10;66.20
57660;DHT22;43485;45.680;15.702;2023-12-07T09:41:37;7.30;66.10
57660;DHT22;43485;45.680;15.702;2023-12-07T09:44:03;7.30;65.90
57660;DHT22;43485;45.680;15.702;2023-12-07T09:46:30;7.30;65.20
57660;DHT22;43485;45.680;15.702;2023-12-07T09:48:56;7.20;65.60
57660;DHT22;43485;45.680;15.702;2023-12-07T09:51:22;7.40;66.10
57660;DHT22;43485;45.680;15.702;2023-12-07T09:53:52;7.60;65.40
57660;DHT22;43485;45.680;15.702;2023-12-07T09:56:18;7.90;64.60
57660;DHT22;43485;45.680;15.702;2023-12-07T09:58:44;8.70;63.40
57660;DHT22;43485;45.680;15.702;2023-12-07T10:01:11;9.00;62.10
57660;DHT22;43485;45.680;15.702;2023-12-07T10:03:39;8.80;62.30
57660;DHT22;43485;45.680;15.702;2023-12-07T10:06:05;8.50;62.20
57660;DHT22;43485;45.680;15.702;2023-12-07T10:08:33;8.30;62.80
57660;DHT22;43485;45.680;15.702;2023-12-07T10:11:18;8.30;63.10
57660;DHT22;43485;45.680;15.702;2023-12-07T10:13:44;9.40;59.90
57660;DHT22;43485;45.680;15.702;2023-12-07T10:16:29;8.90;59.70
57660;DHT22;43485;45.680;15.702;2023-12-07T10:18:55;8.70;60.90
57660;DHT22;43485;45.680;15.702;2023-12-07T10:21:39;9.60;59.60
57660;DHT22;43485;45.680;15.702;2023-12-07T10:24:05;9.80;58.30
57660;DHT22;43485;45.680;15.702;2023-12-07T10:26:31;9.80;57.90
57660;DHT22;43485;45.680;15.702;2023-12-07T10:28:58;9.50;58.70
57660;DHT22;43485;45.680;15.702;2023-12-07T10:31:26;9.70;58.80
57660;DHT22;43485;45.680;15.702;2023-12-07T10:33:52;10.20;57.30
57660;DHT22;43485;45.680;15.702;2023-12-07T10:36:19;11.90;53.50
57660;DHT22;43485;45.680;15.702;2023-12-07T10:38:45;12.20;51.60
57660;DHT22;43485;45.680;15.702;2023-12-07T10:41:12;12.10;51.60
57660;DHT22;43485;45.680;15.702;2023-12-07T10:43:43;11.70;52.20
57660;DHT22;43485;45.680;15.702;2023-12-07T10:46:29;11.50;53.50
57660;DHT22;43485;45.680;15.702;2023-12-07T10:49:19;12.60;50.70
57660;DHT22;43485;45.680;15.702;2023-12-07T10:51:55;12.40;51.00
57660;DHT22;43485;45.680;15.702;2023-12-07T10:54:30;13.50;48.90
57660;DHT22;43485;45.680;15.702;2023-12-07T10:57:11;15.50;43.30
57660;DHT22;43485;45.680;15.702;2023-12-07T10:59:41;17.00;39.60
57660;DHT22;43485;45.680;15.702;2023-12-07T11:02:10;17.90;36.70
57660;DHT22;43485;45.680;15.702;2023-12-07T11:04:41;17.70;36.60
57660;DHT22;43485;45.680;15.702;2023-12-07T11:07:11;16.70;38.00
57660;DHT22;43485;45.680;15.702;2023-12-07T11:09:45;15.50;40.80
57660;DHT22;43485;45.680;15.702;2023-12-07T11:12:38;15.90;41.20
57660;DHT22;43485;45.680;15.702;2023-12-07T11:15:14;16.70;38.30
57660;DHT22;43485;45.680;15.702;2023-12-07T11:17:59;16.90;37.70
57660;DHT22;43485;45.680;15.702;2023-12-07T11:20:46;16.30;37.90
57660;DHT22;43485;45.680;15.702;2023-12-07T11:23:18;15.90;39.40
57660;DHT22;43485;45.680;15.702;2023-12-07T11:25:45;16.50;38.30
57660;DHT22;43485;45.680;15.702;2023-12-07T11:28:12;16.20;38.30
57660;DHT22;43485;45.680;15.702;2023-12-07T11:30:53;15.20;40.60
57660;DHT22;43485;45.680;15.702;2023-12-07T11:33:20;14.60;41.50
57660;DHT22;43485;45.680;15.702;2023-12-07T11:36:06;14.60;42.40
57660;DHT22;43485;45.680;15.702;2023-12-07T11:38:33;14.90;40.90
57660;DHT22;43485;45.680;15.702;2023-12-07T11:40:59;15.00;40.60
57660;DHT22;43485;45.680;15.702;2023-12-07T11:43:45;14.90;40.40
57660;DHT22;43485;45.680;15.702;2023-12-07T11:46:12;15.30;39.80
57660;DHT22;43485;45.680;15.702;2023-12-07T11:48:39;15.10;38.60
57660;DHT22;43485;45.680;15.702;2023-12-07T11:51:12;15.30;38.60
57660;DHT22;43485;45.680;15.702;2023-12-07T11:53:38;16.60;38.00
57660;DHT22;43485;45.680;15.702;2023-12-07T11:56:06;17.40;35.60
57660;DHT22;43485;45.680;15.702;2023-12-07T11:58:34;16.50;36.00
57660;DHT22;43485;45.680;15.702;2023-12-07T12:01:02;15.00;39.00
57660;DHT22;43485;45.680;15.702;2023-12-07T12:03:29;14.50;41.20
57660;DHT22;43485;45.680;15.702;2023-12-07T12:05:58;14.70;41.20
57660;DHT22;43485;45.680;15.702;2023-12-07T12:08:24;13.90;41.20
57660;DHT22;43485;45.680;15.702;2023-12-07T12:10:51;13.20;43.30
57660;DHT22;43485;45.680;15.702;2023-12-07T12:13:41;12.90;45.60
57660;DHT22;43485;45.680;15.702;2023-12-07T12:16:07;12.90;45.50
57660;DHT22;43485;45.680;15.702;2023-12-07T12:18:34;12.90;46.10
57660;DHT22;43485;45.680;15.702;2023-12-07T12:21:00;13.20;44.50
57660;DHT22;43485;45.680;15.702;2023-12-07T12:23:27;13.40;44.10
57660;DHT22;43485;45.680;15.702;2023-12-07T12:25:54;12.90;45.00
57660;DHT22;43485;45.680;15.702;2023-12-07T12:28:21;12.50;45.60
57660;DHT22;43485;45.680;15.702;2023-12-07T12:30:50;12.60;46.00
57660;DHT22;43485;45.680;15.702;2023-12-07T12:33:16;12.90;45.40
57660;DHT22;43485;45.680;15.702;2023-12-07T12:35:43;13.30;45.10
57660;DHT22;43485;45.680;15.702;2023-12-07T12:38:28;13.40;44.60
57660;DHT22;43485;45.680;15.702;2023-12-07T12:40:54;13.60;43.60
57660;DHT22;43485;45.680;15.702;2023-12-07T12:43:20;14.60;42.40
57660;DHT22;43485;45.680;15.702;2023-12-07T12:45:47;15.10;39.50
57660;DHT22;43485;45.680;15.702;2023-12-07T12:48:13;15.70;38.50
57660;DHT22;43485;45.680;15.702;2023-12-07T12:50:40;15.60;38.80
57660;DHT22;43485;45.680;15.702;2023-12-07T12:53:08;14.90;38.00
57660;DHT22;43485;45.680;15.702;2023-12-07T12:55:54;14.20;39.40
57660;DHT22;43485;45.680;15.702;2023-12-07T12:58:20;13.80;40.20
57660;DHT22;43485;45.680;15.702;2023-12-07T13:00:47;13.90;41.40
57660;DHT22;43485;45.680;15.702;2023-12-07T13:03:14;14.10;39.90
57660;DHT22;43485;45.680;15.702;2023-12-07T13:05:40;14.50;39.30
57660;DHT22;43485;45.680;15.702;2023-12-07T13:08:06;15.20;38.90
57660;DHT22;43485;45.680;15.702;2023-12-07T13:10:33;15.70;36.90
57660;DHT22;43485;45.680;15.702;2023-12-07T13:12:59;15.60;35.90
57660;DHT22;43485;45.680;15.702;2023-12-07T13:15:25;15.40;35.90
57660;DHT22;43485;45.680;15.702;2023-12-07T13:17:51;15.30;36.40
57660;DHT22;43485;45.680;15.702;2023-12-07T13:20:17;15.50;37.20
57660;DHT22;43485;45.680;15.702;2023-12-07T13:22:46;15.20;36.50
57660;DHT22;43485;45.680;15.702;2023-12-07T13:25:12;15.00;36.90
57660;DHT22;43485;45.680;15.702;2023-12-07T13:27:40;15.30;36.10
57660;DHT22;43485;45.680;15.702;2023-12-07T13:30:09;15.50;36.80
57660;DHT22;43485;45.680;15.702;2023-12-07T13:32:35;15.90;36.10
57660;DHT22;43485;45.680;15.702;2023-12-07T13:35:03;16.00;35.40
57660;DHT22;43485;45.680;15.702;2023-12-07T13:37:30;16.00;34.80
57660;DHT22;43485;45.680;15.702;2023-12-07T13:39:58;16.00;34.80
57660;DHT22;43485;45.680;15.702;2023-12-07T13:42:26;16.10;33.40
57660;DHT22;43485;45.680;15.702;2023-12-07T13:45:11;15.70;34.50
57660;DHT22;43485;45.680;15.702;2023-12-07T13:47:38;15.70;35.50
57660;DHT22;43485;45.680;15.702;2023-12-07T13:50:05;15.20;36.00
57660;DHT22;43485;45.680;15.702;2023-12-07T13:52:32;14.80;36.10
57660;DHT22;43485;45.680;15.702;2023-12-07T13:54:58;14.10;37.80
57660;DHT22;43485;45.680;15.702;2023-12-07T13:57:25;13.60;39.60
57660;DHT22;43485;45.680;15.702;2023-12-07T13:59:51;13.10;39.40
57660;DHT22;43485;45.680;15.702;2023-12-07T14:02:18;12.80;40.50
57660;DHT22;43485;45.680;15.702;2023-12-07T14:07:30;12.20;43.00
57660;DHT22;43485;45.680;15.702;2023-12-07T14:09:56;12.00;43.60
57660;DHT22;43485;45.680;15.702;2023-12-07T14:12:22;11.70;44.00
57660;DHT22;43485;45.680;15.702;2023-12-07T14:14:48;11.40;45.00
57660;DHT22;43485;45.680;15.702;2023-12-07T14:17:16;11.10;45.90
57660;DHT22;43485;45.680;15.702;2023-12-07T14:20:01;11.00;46.10
57660;DHT22;43485;45.680;15.702;2023-12-07T14:22:27;10.80;46.20
57660;DHT22;43485;45.680;15.702;2023-12-07T14:24:54;10.60;46.90
57660;DHT22;43485;45.680;15.702;2023-12-07T14:27:20;10.40;47.60
57660;DHT22;43485;45.680;15.702;2023-12-07T14:29:46;10.20;48.00
57660;DHT22;43485;45.680;15.702;2023-12-07T14:32:12;10.10;48.50
57660;DHT22;43485;45.680;15.702;2023-12-07T14:34:38;10.00;48.50
57660;DHT22;43485;45.680;15.702;2023-12-07T14:37:05;10.00;48.50
57660;DHT22;43485;45.680;15.702;2023-12-07T14:39:31;10.10;48.30
57660;DHT22;43485;45.680;15.702;2023-12-07T14:41:57;10.00;48.30
57660;DHT22;43485;45.680;15.702;2023-12-07T14:44:23;9.90;48.60
57660;DHT22;43485;45.680;15.702;2023-12-07T14:46:51;9.70;48.70
57660;DHT22;43485;45.680;15.702;2023-12-07T14:49:18;9.60;49.30
57660;DHT22;43485;45.680;15.702;2023-12-07T14:51:47;9.40;49.80
57660;DHT22;43485;45.680;15.702;2023-12-07T14:54:13;9.20;50.10
57660;DHT22;43485;45.680;15.702;2023-12-07T14:56:40;9.10;50.60
57660;DHT22;43485;45.680;15.702;2023-12-07T14:59:07;8.80;50.80
57660;DHT22;43485;45.680;15.702;2023-12-07T15:01:33;8.60;50.80
57660;DHT22;43485;45.680;15.702;2023-12-07T15:04:00;8.40;51.10
57660;DHT22;43485;45.680;15.702;2023-12-07T15:06:26;8.30;52.00
57660;DHT22;43485;45.680;15.702;2023-12-07T15:08:52;8.20;52.20
57660;DHT22;43485;45.680;15.702;2023-12-07T15:11:19;8.00;52.40
57660;DHT22;43485;45.680;15.702;2023-12-07T15:13:45;7.90;52.90
57660;DHT22;43485;45.680;15.702;2023-12-07T15:16:12;7.80;53.40
57660;DHT22;43485;45.680;15.702;2023-12-07T15:18:38;7.60;53.70
57660;DHT22;43485;45.680;15.702;2023-12-07T15:21:11;7.50;53.60
57660;DHT22;43485;45.680;15.702;2023-12-07T15:23:42;7.30;54.00
57660;DHT22;43485;45.680;15.702;2023-12-07T15:26:09;7.20;54.10
57660;DHT22;43485;45.680;15.702;2023-12-07T15:28:36;7.10;54.60
57660;DHT22;43485;45.680;15.702;2023-12-07T15:31:04;6.90;54.90
57660;DHT22;43485;45.680;15.702;2023-12-07T15:33:31;6.80;55.40
57660;DHT22;43485;45.680;15.702;2023-12-07T15:35:58;6.60;55.80